Jacksonville, Illinois
Current Conditions -  °F | °C
As of 7:35 PM on Friday 19 Dec 2014 (Local Time) from KIJX Reporting Station
Overcast Overcast  
Wind Chill: -3°   Ceiling: 5000
Heat Index:   Visibility: 7mi
Dew Point: -2°   Wind: 7mph
Humidity: 83%   Direction: 90°E
Pressure: 30.27"   Gusts: NA
Location:  39.75°N, 90.23°W
Report Text: KIJX 200135Z AUTO 09006KT 7SM OVC050 01/M02 A3027 RMK AO2 T00061020
Loading
Personal Weather Stations






























Interactive Weather Map New forecast layout! Learn more

10-Day Weather Forecast

Advertisements
Track Severe Weather on mobile